Latest Weather Observations for Roma

IDQ60801

Issued at 9:05 pm EST Tuesday 22 July 2014 (issued every 30 minutes, with the page automatically refreshed every 10 minutes)

About weather observations | Map of weather stations | Latest weather observations for QLD | Other Formats
Station Details ID: 043091 Name: ROMA AIRPORT Lat: -26.55 Lon: 148.77 Height: 307.38 m
Data from the previous 72 hours. | See also: Recent months at Roma
Date/Time
EST
Temp
°C
App
Temp
°C
Dew
Point
Rel
Hum
%
Delta-T
°C
Wind Press
QNH
hPa
Press
MSL
hPa
Rain
since 9 am
mm
Dir
 
Spd
km/h
Gust
km/h
Spd
kts
Gust
kts
22/09:00pm 7.5 4.9 -5.2 40 4.4 ENE 0 0 0 0 1021.2 1020.7 0.0
22/08:30pm 8.0 5.3 -6.1 36 4.9 ENE 0 0 0 0 1021.2 - 0.0
22/08:00pm 11.2 8.6 -4.9 32 6.0 CALM 0 0 0 0 1021.1 - 0.0
22/07:30pm 12.7 10.1 -5.3 28 6.7 CALM 0 4 0 2 1021.2 - 0.0
22/07:00pm 12.9 9.2 -4.7 29 6.7 SE 6 7 3 4 1020.9 - 0.0
22/06:30pm 11.8 7.4 -6.1 28 6.5 S 9 11 5 6 1020.4 - 0.0
22/06:00pm 13.5 8.7 -5.6 26 7.1 SSW 11 15 6 8 1020.2 1019.8 0.0
22/05:30pm 16.8 12.0 -5.6 21 8.7 S 11 13 6 7 1019.8 - 0.0
22/05:00pm 19.4 14.2 -6.2 17 10.1 S 13 17 7 9 1019.4 - 0.0
22/04:30pm 20.4 14.7 -7.1 15 10.8 S 15 22 8 12 1019.2 - 0.0
22/04:00pm 20.9 15.0 -5.8 16 10.8 SSW 17 24 9 13 1019.0 - 0.0
22/03:30pm 21.5 15.6 -5.3 16 11.0 SW 17 24 9 13 1019.0 - 0.0
22/03:00pm 21.5 16.0 -5.3 16 11.0 SSW 15 22 8 12 1019.0 1018.6 0.0
22/02:30pm 21.6 16.1 -5.3 16 11.0 WSW 15 26 8 14 1019.1 - 0.0
22/02:00pm 21.2 16.5 -4.8 17 10.7 SSW 11 20 6 11 1019.3 - 0.0
22/01:30pm 21.7 16.7 -4.4 17 10.9 SW 13 22 7 12 1019.6 - 0.0
22/01:00pm 20.8 15.7 -5.1 17 10.6 SW 13 28 7 15 1019.9 - 0.0
22/12:30pm 20.5 15.8 -4.6 18 10.3 SW 11 20 6 11 1020.4 - 0.0
22/12:00pm 20.3 16.5 -3.4 20 9.9 WSW 7 17 4 9 1021.1 1020.6 0.0
22/11:30am 19.9 16.1 -3.7 20 9.8 SSE 7 13 4 7 1021.8 - 0.0
22/11:00am 19.0 15.3 -2.6 23 9.1 S 7 15 4 8 1022.3 - 0.0
22/10:30am 17.8 14.1 -2.5 25 8.5 SW 7 11 4 6 1022.7 - 0.0
22/10:00am 16.2 12.8 -2.3 28 7.7 SW 6 9 3 5 1022.9 - 0.0
22/09:30am 13.5 9.8 -3.3 31 6.6 SW 7 9 4 5 1023.0 - 0.0
22/09:00am 11.4 8.6 -3.1 36 5.6 ESE 2 6 1 3 1022.9 1022.5 0.0
22/08:30am 7.6 5.1 -4.2 43 4.3 CALM 0 0 0 0 1022.6 - 0.0
22/08:00am 3.9 1.3 -4.5 54 2.9 CALM 0 0 0 0 1022.6 - 0.0
22/07:30am 0.6 -3.2 -5.2 65 1.9 N 6 7 3 4 1022.4 - 0.0
22/07:00am -1.1 -4.9 -5.7 71 1.4 N 6 11 3 6 1022.1 - 0.0
22/06:30am -1.9 -6.4 -6.4 71 1.3 N 9 11 5 6 1022.0 - 0.0
22/06:00am -1.3 -5.3 -6.0 70 1.4 N 7 7 4 4 1021.5 1021.0 0.0
22/05:30am -1.2 -5.1 -6.1 69 1.5 NNE 6 7 3 4 1021.3 - 0.0
22/05:00am -0.4 -4.4 -5.6 68 1.6 NNE 7 9 4 5 1021.0 - 0.0
22/04:30am 0.0 -3.8 -5.4 67 1.7 N 6 7 3 4 1021.0 - 0.0
22/04:00am 0.5 -3.3 -5.1 66 1.8 NNE 6 6 3 3 1020.9 - 0.0
22/03:30am 0.7 -3.2 -5.1 65 1.9 N 7 9 4 5 1020.9 - 0.0
22/03:00am 0.9 -3.0 -4.9 65 1.9 N 7 7 4 4 1020.9 1020.4 0.0
22/02:30am 0.9 -3.0 -5.1 64 2.0 N 7 9 4 5 1020.9 - 0.0
22/02:00am 1.3 -2.6 -4.7 64 2.1 N 7 9 4 5 1020.9 - 0.0
22/01:30am 1.8 -2.1 -4.7 62 2.3 N 7 7 4 4 1021.1 - 0.0
22/01:00am 1.8 -2.1 -4.7 62 2.3 N 7 9 4 5 1021.3 - 0.0
22/12:30am 2.5 -1.2 -4.5 60 2.3 NNE 6 7 3 4 1021.3 - 0.0
22/12:00am 2.2 -1.5 -4.3 62 2.2 NNE 6 6 3 3 1021.5 1021.0 0.0
 
Date/Time
EST
Temp
°C
App
Temp
°C
Dew
Point
Rel
Hum
%
Delta-T
°C
Wind Press
QNH
hPa
Press
MSL
hPa
Rain
since 9 am
mm
Dir
 
Spd
km/h
Gust
km/h
Spd
kts
Gust
kts
21/11:30pm 3.7 1.2 -4.0 57 2.7 CALM 0 0 0 0 1021.6 - 0.0
21/11:00pm 3.1 0.5 -4.8 56 2.6 CALM 0 0 0 0 1021.6 - 0.0
21/10:30pm 4.5 0.6 -4.2 53 3.0 N 7 7 4 4 1021.8 - 0.0
21/10:00pm 3.7 0.0 -4.5 55 2.8 N 6 7 3 4 1021.7 - 0.0
21/09:30pm 5.1 1.2 -4.4 50 3.3 N 7 9 4 5 1021.6 - 0.0
21/09:00pm 5.5 1.3 -4.1 50 3.4 N 9 11 5 6 1021.7 1021.2 0.0
21/08:30pm 5.7 3.0 -5.6 44 3.8 CALM 0 0 0 0 1021.7 - 0.0
21/08:00pm 5.9 3.3 -5.1 45 3.8 CALM 0 4 0 2 1021.6 - 0.0
21/07:30pm 8.2 5.5 -5.6 37 4.8 CALM 0 0 0 0 1021.4 - 0.0
21/07:00pm 10.5 7.9 -4.7 34 5.6 CALM 0 0 0 0 1021.2 - 0.0
21/06:30pm 13.0 9.5 -2.9 33 6.3 SE 6 7 3 4 1020.9 - 0.0
21/06:00pm 13.9 10.1 -3.8 29 6.9 SE 7 9 4 5 1020.3 1019.9 0.0
21/05:30pm 16.5 12.3 -4.1 24 8.2 SSE 9 11 5 6 1020.0 - 0.0
21/05:00pm 18.5 14.3 -4.2 21 9.2 SE 9 15 5 8 1019.9 - 0.0
21/04:30pm 19.6 15.7 -4.6 19 9.9 SSE 7 11 4 6 1019.6 - 0.0
21/04:00pm 20.6 16.9 -4.5 18 10.4 SSW 6 11 3 6 1019.6 - 0.0
21/03:30pm 20.4 16.8 -4.0 19 10.1 S 6 11 3 6 1019.7 - 0.0
21/03:00pm 20.5 16.4 -3.2 20 10.0 S 9 17 5 9 1019.8 1019.4 0.0
21/02:30pm 20.0 15.9 -3.0 21 9.7 SSW 9 13 5 7 1019.9 - 0.0
21/02:00pm 20.3 15.9 -2.7 21 9.8 W 11 15 6 8 1020.1 - 0.0
21/01:30pm 20.4 16.7 -3.3 20 10.0 S 7 11 4 6 1020.3 - 0.0
21/01:00pm 19.7 15.7 -2.6 22 9.5 WSW 9 15 5 8 1020.7 - 0.0
21/12:30pm 19.6 16.0 -2.1 23 9.3 WSW 7 15 4 8 1021.3 - 0.0
21/12:00pm 18.6 14.7 -1.3 26 8.6 ENE 9 15 5 8 1021.8 1021.4 0.0
21/11:30am 17.8 14.3 -1.4 27 8.2 NNE 7 13 4 7 1022.4 - 0.0
21/11:00am 17.5 14.2 -0.2 30 7.7 N 7 11 4 6 1023.0 - 0.0
21/10:30am 15.6 12.4 0.6 36 6.6 N 7 11 4 6 1023.5 - 0.0
21/10:00am 13.9 10.7 0.9 41 5.6 N 7 9 4 5 1023.7 - 0.0
21/09:30am 11.1 7.9 -0.4 45 4.7 N 6 9 3 5 1023.8 - 0.0
21/09:00am 8.1 4.6 -1.1 52 3.6 N 7 9 4 5 1023.7 1023.3 0.0
21/08:30am 4.9 1.5 -2.4 59 2.7 N 6 7 3 4 1023.9 - 0.0
21/08:00am 1.9 -1.9 -3.4 68 1.8 N 7 7 4 4 1023.8 - 0.0
21/07:30am -0.6 -4.3 -4.3 76 1.2 NNE 6 7 3 4 1023.8 - 0.0
21/07:00am -3.1 -6.6 -5.9 81 0.7 NNW 4 7 2 4 1023.8 - 0.0
21/06:30am -2.3 -5.6 -4.8 83 0.7 N 4 6 2 3 1023.5 - 0.0
21/06:00am -2.2 -6.5 -5.0 81 0.8 N 9 9 5 5 1023.0 1022.6 0.0
21/05:30am -2.1 -4.7 -5.2 79 0.9 CALM 0 0 0 0 1022.7 - 0.0
21/05:00am -1.9 -5.7 -5.4 77 1.0 NNE 6 7 3 4 1022.6 - 0.0
21/04:30am -1.6 -5.4 -5.1 77 1.0 NNE 6 7 3 4 1022.4 - 0.0
21/04:00am -0.5 -4.4 -4.2 76 1.2 N 7 9 4 5 1022.3 - 0.0
21/03:30am 0.0 -2.4 -3.0 80 1.0 CALM 0 0 0 0 1022.3 - 0.0
21/03:00am 0.5 -1.9 -3.2 76 1.3 CALM 0 0 0 0 1022.1 1021.7 0.0
21/02:30am 0.2 -3.1 -4.2 72 1.5 NNE 4 6 2 3 1022.1 - 0.0
21/02:00am 0.6 -3.2 -3.7 73 1.5 N 7 7 4 4 1022.2 - 0.0
21/01:30am 0.4 -3.8 -4.0 72 1.5 N 9 11 5 6 1022.5 - 0.0
21/01:00am 0.7 -3.0 -4.3 69 1.7 NNE 6 7 3 4 1022.6 - 0.0
21/12:30am 1.7 -2.1 -3.4 69 1.8 N 7 9 4 5 1022.9 - 0.0
21/12:00am 1.6 -2.2 -4.0 66 2.0 NNE 7 7 4 4 1023.0 1022.6 0.0
 
Date/Time
EST
Temp
°C
App
Temp
°C
Dew
Point
Rel
Hum
%
Delta-T
°C
Wind Press
QNH
hPa
Press
MSL
hPa
Rain
since 9 am
mm
Dir
 
Spd
km/h
Gust
km/h
Spd
kts
Gust
kts
20/11:30pm 2.3 -0.5 -3.6 65 2.0 WSW 2 7 1 4 1023.1 - 0.0
20/11:00pm 2.7 0.2 -3.8 62 2.2 CALM 0 0 0 0 1023.3 - 0.0
20/10:30pm 4.0 1.3 -2.6 62 2.4 SW 2 6 1 3 1023.3 - 0.0
20/10:00pm 3.9 0.2 -2.9 61 2.4 SW 7 9 4 5 1023.3 - 0.0
20/09:30pm 4.8 2.2 -4.7 50 3.3 CALM 0 0 0 0 1023.2 - 0.0
20/09:00pm 5.2 2.7 -3.8 52 3.2 CALM 0 0 0 0 1023.2 1022.8 0.0
20/08:30pm 4.9 2.3 -4.6 50 3.3 CALM 0 0 0 0 1023.2 - 0.0
20/08:00pm 6.7 3.8 -4.4 45 3.9 SE 2 6 1 3 1022.9 - 0.0
20/07:30pm 10.0 6.9 -2.3 42 4.8 SSE 4 7 2 4 1022.8 - 0.0
20/07:00pm 10.7 7.1 -2.0 41 5.0 SSE 7 9 4 5 1022.6 - 0.0
20/06:30pm 11.1 7.0 -3.0 37 5.4 SSE 9 11 5 6 1022.2 - 0.0
20/06:00pm 12.2 7.7 -3.2 34 6.0 SSE 11 13 6 7 1022.0 1021.6 0.0
20/05:30pm 14.0 8.7 -3.7 29 6.9 SSE 15 17 8 9 1021.6 - 0.0
20/05:00pm 16.4 11.5 -3.1 26 7.9 S 13 17 7 9 1021.4 - 0.0
20/04:30pm 17.5 12.7 -2.7 25 8.4 S 13 19 7 10 1021.3 - 0.0
20/04:00pm 18.1 13.4 -1.7 26 8.4 SSE 13 26 7 14 1021.0 - 0.0
20/03:30pm 17.7 13.3 -2.6 25 8.5 SSE 11 15 6 8 1020.9 - 0.0
20/03:00pm 18.3 13.9 -2.6 24 8.7 SSE 11 17 6 9 1021.1 1020.6 0.0
20/02:30pm 18.3 14.3 -2.0 25 8.6 SE 9 17 5 9 1021.5 - 0.0
20/02:00pm 18.0 14.1 -1.8 26 8.4 S 9 24 5 13 1021.6 - 0.0
20/01:30pm 16.9 12.6 -1.7 28 7.8 SSE 11 19 6 10 1021.6 - 0.0
20/01:00pm 16.2 11.6 -1.4 30 7.4 SSE 13 19 7 10 1022.3 - 0.0
20/12:30pm 16.3 12.3 0.4 34 7.0 S 11 20 6 11 1022.7 - 0.0
20/12:00pm 15.2 11.1 -0.1 35 6.5 SE 11 17 6 9 1023.6 1023.2 0.0
20/11:30am 14.5 10.0 0.0 37 6.2 ESE 13 19 7 10 1024.0 - 0.0
20/11:00am 13.7 8.5 0.4 40 5.7 SE 17 22 9 12 1024.6 - 0.0
20/10:30am 12.4 7.6 0.2 43 5.1 S 15 20 8 11 1024.8 - 0.0
20/10:00am 11.0 7.3 0.1 47 4.5 S 9 17 5 9 1025.1 - 0.0
20/09:30am 9.4 5.3 -0.2 51 3.9 S 11 15 6 8 1025.0 - 0.0
20/09:00am 7.8 3.7 -0.4 56 3.2 SSW 11 15 6 8 1024.8 1024.4 0.0
20/08:30am 6.0 1.8 -0.9 61 2.6 SSW 11 13 6 7 1024.6 - 0.0
20/08:00am 3.0 -0.5 -2.7 66 2.0 N 6 7 3 4 1024.4 - 0.0
20/07:30am -0.6 -3.2 -5.0 72 1.4 CALM 0 0 0 0 1024.3 - 0.0
20/07:00am -2.5 -6.4 -5.0 83 0.7 WSW 7 9 4 5 1024.0 - 0.0
20/06:30am -2.7 -5.3 -5.2 83 0.7 CALM 0 0 0 0 1023.5 - 0.0
20/06:00am -2.9 -6.0 -5.9 80 0.8 NNW 2 6 1 3 1023.1 1022.7 0.0
20/05:30am -2.8 -5.5 -6.1 78 0.9 CALM 0 0 0 0 1022.9 - 0.0
20/05:00am -1.6 -5.4 -5.3 76 1.1 W 6 9 3 5 1022.8 - 0.0
20/04:30am -2.5 -5.3 -7.4 69 1.3 CALM 0 0 0 0 1022.4 - 0.0
20/04:00am -1.2 -3.8 -4.9 76 1.1 CALM 0 0 0 0 1022.5 - 0.0
20/03:30am -1.0 -3.6 -5.0 74 1.2 CALM 0 0 0 0 1022.7 - 0.0
20/03:00am -1.1 -3.8 -5.5 72 1.3 CALM 0 2 0 1 1022.8 1022.4 0.0
20/02:30am -0.5 -4.3 -5.5 69 1.6 NNW 6 9 3 5 1023.0 - 0.0
20/02:00am 0.0 -3.7 -4.6 71 1.5 NNE 6 7 3 4 1023.1 - 0.0
20/01:30am 0.3 -3.4 -4.3 71 1.5 N 6 7 3 4 1023.2 - 0.0
20/01:00am 0.1 -3.2 -4.3 72 1.5 N 4 7 2 4 1023.2 - 0.0
20/12:30am 0.8 -3.1 -4.4 68 1.8 N 7 9 4 5 1023.1 - 0.0
20/12:00am 1.5 -1.8 -4.6 64 2.1 SE 4 7 2 4 1023.2 1022.8 0.0
 
Date/Time
EST
Temp
°C
App
Temp
°C
Dew
Point
Rel
Hum
%
Delta-T
°C
Wind Press
QNH
hPa
Press
MSL
hPa
Rain
since 9 am
mm
Dir
 
Spd
km/h
Gust
km/h
Spd
kts
Gust
kts
19/11:30pm 2.8 -2.5 -3.3 64 2.1 WNW 15 17 8 9 1023.6 - 0.0
19/11:00pm 1.4 -3.3 -4.9 63 2.2 WNW 11 13 6 7 1023.9 - 0.0
19/10:30pm 3.7 0.5 -3.6 59 2.5 SSW 4 6 2 3 1023.7 - 0.0
19/10:00pm 3.2 -1.4 -4.0 59 2.5 WSW 11 13 6 7 1023.9 - 0.0
19/09:30pm 4.9 -0.1 -4.1 52 3.1 S 13 15 7 8 1023.6 - 0.0

Other Formats:

Comma delimited format used in spreadsheet applications
http://www.bom.gov.au/fwo/IDQ60801/IDQ60801.94515.axf

JavaScript Object Notation format (JSON) in row-major order
http://www.bom.gov.au/fwo/IDQ60801/IDQ60801.94515.json